createdAt,value
2022-10-11T00:01:47.469Z,83.79
2022-10-11T00:04:14.156Z,83.58
2022-10-11T00:06:43.375Z,84.24
2022-10-11T00:09:14.759Z,83.73
2022-10-11T00:11:42.072Z,84.83
2022-10-11T00:14:08.885Z,84.11
2022-10-11T00:16:35.681Z,84.44
2022-10-11T00:19:02.439Z,85.56
2022-10-11T00:21:30.603Z,85.74
2022-10-11T00:23:57.331Z,86.42
2022-10-11T00:26:24.006Z,86.63
2022-10-11T00:28:52.624Z,87.64
2022-10-11T00:31:19.498Z,87.28
2022-10-11T00:33:46.874Z,87.63
2022-10-11T00:36:16.625Z,87.46
2022-10-11T00:38:44.642Z,87.26
2022-10-11T00:41:12.219Z,86.81
2022-10-11T00:43:38.972Z,86.29
2022-10-11T00:46:17.703Z,87.31
2022-10-11T00:49:13.464Z,86.53
2022-10-11T00:51:52.211Z,87.20
2022-10-11T00:54:23.230Z,87.06
2022-10-11T00:56:56.182Z,86.39
2022-10-11T00:59:29.463Z,86.52
2022-10-11T01:01:56.710Z,85.42
2022-10-11T01:04:23.383Z,85.59
2022-10-11T01:06:51.168Z,84.04
2022-10-11T01:09:18.968Z,84.30
2022-10-11T01:11:47.131Z,85.44
2022-10-11T01:14:38.619Z,86.03
2022-10-11T01:17:25.077Z,85.60
2022-10-11T01:20:12.972Z,86.16
2022-10-11T01:22:57.718Z,86.25
2022-10-11T01:25:48.288Z,86.45
2022-10-11T01:28:49.159Z,85.63
2022-10-11T01:31:32.093Z,85.30
2022-10-11T01:34:32.859Z,84.60
2022-10-11T01:37:16.547Z,84.03
2022-10-11T01:39:51.889Z,83.48
2022-10-11T01:42:20.088Z,83.53
2022-10-11T01:44:49.746Z,84.25
2022-10-11T01:47:23.625Z,83.66
2022-10-11T01:49:58.906Z,83.25
2022-10-11T01:52:29.014Z,83.58
2022-10-11T01:55:28.021Z,84.39
2022-10-11T01:58:16.138Z,83.80
2022-10-11T02:01:05.746Z,84.13
2022-10-11T02:03:59.636Z,83.88
2022-10-11T02:06:57.367Z,83.96
2022-10-11T02:09:49.531Z,84.92
2022-10-11T02:12:37.654Z,84.52
2022-10-11T02:15:18.575Z,83.68
2022-10-11T02:18:00.618Z,83.68
2022-10-11T02:20:41.336Z,84.70
2022-10-11T02:23:29.687Z,84.35
2022-10-11T02:26:11.275Z,83.61
2022-10-11T02:28:53.705Z,84.45
2022-10-11T02:31:36.054Z,85.45
2022-10-11T02:34:23.889Z,85.60
2022-10-11T02:37:21.450Z,85.59
2022-10-11T02:40:08.292Z,85.04
2022-10-11T02:42:53.447Z,84.61
2022-10-11T02:45:44.914Z,84.56
2022-10-11T02:48:24.149Z,85.75
2022-10-11T02:51:04.196Z,85.65
2022-10-11T02:53:41.988Z,85.97
2022-10-11T02:56:20.058Z,85.16
2022-10-11T02:58:58.240Z,85.24
2022-10-11T03:01:36.480Z,86.06
2022-10-11T03:04:15.276Z,85.71
2022-10-11T03:06:52.840Z,86.61
2022-10-11T03:09:31.034Z,86.63
2022-10-11T03:12:09.377Z,86.15
2022-10-11T03:14:48.102Z,86.48
2022-10-11T03:17:41.028Z,87.44
2022-10-11T03:20:18.653Z,87.39
2022-10-11T03:22:56.574Z,87.80
2022-10-11T03:25:34.815Z,87.68
2022-10-11T03:28:12.913Z,87.07
2022-10-11T03:30:51.555Z,87.34
2022-10-11T03:33:33.233Z,87.85
2022-10-11T03:36:11.066Z,87.79
2022-10-11T03:38:48.817Z,87.77
2022-10-11T03:41:26.974Z,87.54
2022-10-11T03:44:05.597Z,86.35
2022-10-11T03:46:43.602Z,85.39
2022-10-11T03:49:22.242Z,83.12
2022-10-11T03:51:59.841Z,80.81
2022-10-11T03:54:38.596Z,79.95
2022-10-11T03:57:16.317Z,80.26
2022-10-11T03:59:54.359Z,79.39
2022-10-11T04:02:36.988Z,78.78
2022-10-11T04:05:17.317Z,77.64
2022-10-11T04:07:55.504Z,77.51
2022-10-11T04:10:33.556Z,76.49
2022-10-11T04:13:12.250Z,77.28
2022-10-11T04:15:50.098Z,76.51
2022-10-11T04:18:28.135Z,75.81
2022-10-11T04:21:06.676Z,76.00
2022-10-11T04:23:44.635Z,75.75
2022-10-11T04:26:22.993Z,74.82
2022-10-11T04:29:00.976Z,73.96
2022-10-11T04:31:39.184Z,72.72
2022-10-11T04:34:18.038Z,72.09
2022-10-11T04:36:55.647Z,71.57
2022-10-11T04:39:34.712Z,71.99
2022-10-11T04:42:12.574Z,71.43
2022-10-11T04:44:50.145Z,71.61
2022-10-11T04:47:28.493Z,72.26
2022-10-11T04:50:06.830Z,72.67
2022-10-11T04:52:44.902Z,72.14
2022-10-11T04:55:22.975Z,71.41
2022-10-11T04:58:02.324Z,71.46
2022-10-11T05:00:39.331Z,71.28
2022-10-11T05:03:17.532Z,70.69
2022-10-11T05:05:56.140Z,70.46
2022-10-11T05:08:34.681Z,69.87
2022-10-11T05:11:15.985Z,70.96
2022-10-11T05:13:53.600Z,70.96
2022-10-11T05:16:32.066Z,70.78
2022-10-11T05:19:10.304Z,69.72
2022-10-11T05:21:48.595Z,69.98
2022-10-11T05:24:26.392Z,70.22
2022-10-11T05:27:04.489Z,69.86
2022-10-11T05:29:42.747Z,68.42
2022-10-11T05:32:21.516Z,69.34
2022-10-11T05:34:59.124Z,68.94
2022-10-11T05:37:37.560Z,69.70
2022-10-11T05:40:15.500Z,69.27
2022-10-11T05:42:52.457Z,68.67
2022-10-11T05:45:32.970Z,68.92
2022-10-11T05:48:10.640Z,68.42
2022-10-11T05:50:48.344Z,69.28
2022-10-11T05:53:26.804Z,68.89
2022-10-11T05:56:05.778Z,69.19
2022-10-11T05:58:44.742Z,69.14
2022-10-11T06:01:26.114Z,70.92
2022-10-11T06:04:05.090Z,70.41
2022-10-11T06:06:42.288Z,70.20
2022-10-11T06:09:21.006Z,68.96
2022-10-11T06:11:58.686Z,69.47
2022-10-11T06:14:50.645Z,68.90
2022-10-11T06:17:53.994Z,69.03
2022-10-11T06:20:49.313Z,68.99
2022-10-11T06:23:42.153Z,68.72
2022-10-11T06:26:37.868Z,68.75
2022-10-11T06:29:41.978Z,68.85
2022-10-11T06:32:37.554Z,67.65
2022-10-11T06:35:41.292Z,67.96
2022-10-11T06:38:37.310Z,68.97
2022-10-11T06:41:32.789Z,68.16
2022-10-11T06:44:27.605Z,68.62
2022-10-11T06:47:19.198Z,68.38
2022-10-11T06:50:15.350Z,67.72
2022-10-11T06:53:11.106Z,66.72
2022-10-11T06:56:21.651Z,67.43
2022-10-11T06:59:18.056Z,66.45
2022-10-11T07:02:10.096Z,66.72
2022-10-11T07:05:01.685Z,66.38
2022-10-11T07:07:56.279Z,69.74
2022-10-11T07:10:52.294Z,69.03
2022-10-11T07:13:51.830Z,66.41
2022-10-11T07:16:46.965Z,66.15
2022-10-11T07:19:42.642Z,65.84
2022-10-11T07:22:35.130Z,64.57
2022-10-11T07:25:25.825Z,65.25
2022-10-11T07:28:16.982Z,64.56
2022-10-11T07:31:17.578Z,64.73
2022-10-11T07:34:09.033Z,65.26
2022-10-11T07:37:00.992Z,64.83
2022-10-11T07:39:51.995Z,64.69
2022-10-11T07:42:43.017Z,63.37
2022-10-11T07:45:38.470Z,62.91
2022-10-11T07:48:39.413Z,62.37
2022-10-11T07:51:33.256Z,62.41
2022-10-11T07:54:28.006Z,62.50
2022-10-11T07:57:36.924Z,63.36
2022-10-11T08:00:44.085Z,65.16
2022-10-11T08:03:48.575Z,65.41
2022-10-11T08:06:53.431Z,65.48
2022-10-11T08:09:54.637Z,66.00
2022-10-11T08:12:49.593Z,65.71
2022-10-11T08:15:50.865Z,65.72
2022-10-11T08:18:51.375Z,66.59
2022-10-11T08:21:46.319Z,66.32
2022-10-11T08:24:49.242Z,66.48
2022-10-11T08:27:40.783Z,65.77
2022-10-11T08:30:34.604Z,65.98
2022-10-11T08:33:26.588Z,65.86
2022-10-11T08:36:22.160Z,66.22
2022-10-11T08:39:17.406Z,65.36
2022-10-11T08:42:40.362Z,65.29
2022-10-11T08:45:39.052Z,65.39
2022-10-11T08:48:37.917Z,64.92
2022-10-11T08:51:41.808Z,65.63
2022-10-11T08:54:51.561Z,65.74
2022-10-11T08:57:48.598Z,65.66
2022-10-11T09:00:41.176Z,66.09
2022-10-11T09:03:38.529Z,66.04
2022-10-11T09:06:52.778Z,66.17
2022-10-11T09:09:55.989Z,65.60
2022-10-11T09:12:58.796Z,65.95
2022-10-11T09:15:52.419Z,65.36
2022-10-11T09:19:09.759Z,65.05
2022-10-11T09:21:52.629Z,65.31
2022-10-11T09:24:52.259Z,65.69
2022-10-11T09:28:01.373Z,65.33
2022-10-11T09:30:23.489Z,64.00
2022-10-11T09:33:08.541Z,61.30
2022-10-11T09:35:42.714Z,60.91
2022-10-11T09:38:38.464Z,61.15
2022-10-11T09:41:46.914Z,61.98
2022-10-11T09:44:22.905Z,61.81
2022-10-11T09:46:50.893Z,61.38
2022-10-11T09:49:20.982Z,60.56
2022-10-11T09:51:53.978Z,59.41
2022-10-11T09:54:27.514Z,59.58
2022-10-11T09:56:54.585Z,59.75
2022-10-11T09:59:30.302Z,58.99
2022-10-11T10:02:22.461Z,59.88
2022-10-11T10:05:10.611Z,60.98
2022-10-11T10:07:40.956Z,60.23
2022-10-11T10:10:34.277Z,59.79
2022-10-11T10:13:04.233Z,60.09
2022-10-11T10:15:34.651Z,59.87
2022-10-11T10:18:03.149Z,58.68
2022-10-11T10:20:35.056Z,58.79
2022-10-11T10:23:21.576Z,58.84
2022-10-11T10:25:52.115Z,58.55
2022-10-11T10:28:25.769Z,58.14
2022-10-11T10:30:59.586Z,58.16
2022-10-11T10:33:30.978Z,57.79
2022-10-11T10:36:07.432Z,57.30
2022-10-11T10:38:40.468Z,56.81
2022-10-11T10:41:12.988Z,56.14
2022-10-11T10:43:41.769Z,56.02
2022-10-11T10:46:11.415Z,56.16
2022-10-11T10:49:23.594Z,56.07
2022-10-11T10:52:03.004Z,55.78
2022-10-11T10:54:55.246Z,56.25
2022-10-11T10:58:07.224Z,55.34
2022-10-11T11:00:44.142Z,55.75
2022-10-11T11:03:35.709Z,54.84
2022-10-11T11:06:07.000Z,54.56
2022-10-11T11:09:02.125Z,55.38
2022-10-11T11:11:41.646Z,54.81
2022-10-11T11:14:33.559Z,54.97
2022-10-11T11:17:20.664Z,55.29
2022-10-11T11:19:59.427Z,55.60
2022-10-11T11:22:32.929Z,56.00
2022-10-11T11:25:05.700Z,55.63
2022-10-11T11:28:01.526Z,56.42
2022-10-11T11:30:37.262Z,56.46
2022-10-11T11:33:28.936Z,55.96
2022-10-11T11:36:01.650Z,56.61
2022-10-11T11:39:03.321Z,55.91
2022-10-11T11:41:50.162Z,56.55
2022-10-11T11:44:25.007Z,54.82
2022-10-11T11:46:57.628Z,56.04
2022-10-11T11:49:48.035Z,54.19
2022-10-11T11:52:28.311Z,55.67
2022-10-11T11:55:06.428Z,54.49
2022-10-11T11:57:34.337Z,55.15
2022-10-11T12:00:15.816Z,55.59
2022-10-11T12:02:50.820Z,54.78
2022-10-11T12:05:22.086Z,53.96
2022-10-11T12:07:54.607Z,54.22
2022-10-11T12:10:28.483Z,54.26
2022-10-11T12:13:22.028Z,54.69
2022-10-11T12:16:00.019Z,54.85
2022-10-11T12:18:28.012Z,55.07
2022-10-11T12:21:26.629Z,54.67
2022-10-11T12:24:33.728Z,54.67
2022-10-11T12:27:41.545Z,54.72
2022-10-11T12:30:48.238Z,54.83
2022-10-11T12:33:25.258Z,54.94
2022-10-11T12:35:54.773Z,54.08
2022-10-11T12:38:39.658Z,54.67
2022-10-11T12:41:09.245Z,54.53
2022-10-11T12:43:51.517Z,54.72
2022-10-11T12:46:31.085Z,54.37
2022-10-11T12:49:26.648Z,54.35
2022-10-11T12:52:17.854Z,53.90
2022-10-11T12:55:07.334Z,54.06
2022-10-11T12:58:08.693Z,53.99
2022-10-11T13:00:50.513Z,53.91
2022-10-11T13:03:22.845Z,53.31
2022-10-11T13:05:53.631Z,53.32
2022-10-11T13:08:35.443Z,52.48
2022-10-11T13:11:05.653Z,52.80
2022-10-11T13:13:43.788Z,52.74
2022-10-11T13:16:20.727Z,52.30
2022-10-11T13:18:49.907Z,52.40
2022-10-11T13:21:36.155Z,52.16
2022-10-11T13:24:12.328Z,51.23
2022-10-11T13:26:39.374Z,51.48
2022-10-11T13:29:18.488Z,52.01
2022-10-11T13:31:47.283Z,51.58
2022-10-11T13:34:16.011Z,51.31
2022-10-11T13:36:43.882Z,51.60
2022-10-11T13:39:31.257Z,51.41
2022-10-11T13:42:00.104Z,52.76
2022-10-11T13:44:27.193Z,51.96
2022-10-11T13:46:54.408Z,51.63
2022-10-11T13:49:53.173Z,50.78
2022-10-11T13:52:22.789Z,50.54
2022-10-11T13:55:14.653Z,50.11
2022-10-11T13:57:44.731Z,49.65
2022-10-11T14:00:14.576Z,49.34
2022-10-11T14:02:51.670Z,49.15
2022-10-11T14:05:25.886Z,49.38
2022-10-11T14:07:53.426Z,49.14
2022-10-11T14:10:23.459Z,49.31
2022-10-11T14:13:06.173Z,49.46
2022-10-11T14:15:37.958Z,49.87
2022-10-11T14:18:41.830Z,49.27
2022-10-11T14:21:20.295Z,49.54
2022-10-11T14:23:55.275Z,49.98
2022-10-11T14:26:24.206Z,49.93
2022-10-11T14:28:57.804Z,50.63
2022-10-11T14:31:28.498Z,50.38
2022-10-11T14:33:55.818Z,50.18
2022-10-11T14:36:23.006Z,50.74
2022-10-11T14:38:50.908Z,50.64
2022-10-11T14:41:18.181Z,49.52
2022-10-11T14:43:44.889Z,49.26
2022-10-11T14:46:24.552Z,48.63
2022-10-11T14:48:55.442Z,48.64
2022-10-11T14:51:29.417Z,48.48
2022-10-11T14:53:56.150Z,48.93
2022-10-11T14:56:23.095Z,48.29
2022-10-11T14:58:50.068Z,48.03
2022-10-11T15:01:17.557Z,48.58
2022-10-11T15:03:44.325Z,48.82
2022-10-11T15:06:18.234Z,48.87
2022-10-11T15:08:45.348Z,50.32
2022-10-11T15:11:14.296Z,50.94
2022-10-11T15:13:41.087Z,50.86
2022-10-11T15:16:08.317Z,51.65
2022-10-11T15:18:35.170Z,51.81
2022-10-11T15:21:01.821Z,51.92
2022-10-11T15:23:28.759Z,51.88
2022-10-11T15:25:55.572Z,52.00
2022-10-11T15:28:31.302Z,52.07
2022-10-11T15:31:00.546Z,51.73
2022-10-11T15:33:27.305Z,51.79
2022-10-11T15:35:54.010Z,52.16
2022-10-11T15:38:23.861Z,51.08
2022-10-11T15:40:51.401Z,52.12
2022-10-11T15:43:24.244Z,51.28
2022-10-11T15:45:51.340Z,52.64
2022-10-11T15:48:19.131Z,52.30
2022-10-11T15:50:52.212Z,51.63
2022-10-11T15:53:25.686Z,51.39
2022-10-11T15:55:54.396Z,51.75
2022-10-11T15:58:26.312Z,51.98
2022-10-11T16:00:56.455Z,52.48
2022-10-11T16:03:25.640Z,53.23
2022-10-11T16:05:53.219Z,52.91
2022-10-11T16:08:20.363Z,53.33
2022-10-11T16:10:47.489Z,52.93
2022-10-11T16:13:16.468Z,53.56
2022-10-11T16:15:44.356Z,52.61
2022-10-11T16:18:14.347Z,52.79
2022-10-11T16:20:43.259Z,53.25
2022-10-11T16:23:10.454Z,53.45
2022-10-11T16:25:38.105Z,54.23
2022-10-11T16:28:07.852Z,54.66
2022-10-11T16:30:38.563Z,54.98
2022-10-11T16:33:05.446Z,55.05
2022-10-11T16:35:32.735Z,55.07
2022-10-11T16:38:01.022Z,55.17
2022-10-11T16:40:29.752Z,54.46
2022-10-11T16:42:56.604Z,55.34
2022-10-11T16:45:23.545Z,55.23
2022-10-11T16:47:50.333Z,55.74
2022-10-11T16:50:17.264Z,56.29
2022-10-11T16:52:44.010Z,55.71
2022-10-11T16:55:11.494Z,56.74
2022-10-11T16:57:38.193Z,56.91
2022-10-11T17:00:07.346Z,56.83
2022-10-11T17:02:35.008Z,57.39
2022-10-11T17:05:02.616Z,57.35
2022-10-11T17:07:31.416Z,57.92
2022-10-11T17:09:59.074Z,58.33
2022-10-11T17:12:25.858Z,58.76
2022-10-11T17:14:53.427Z,58.70
2022-10-11T17:17:21.150Z,57.75
2022-10-11T17:19:50.777Z,58.29
2022-10-11T17:22:19.586Z,58.99
2022-10-11T17:24:46.666Z,59.67
2022-10-11T17:27:15.673Z,59.56
2022-10-11T17:29:42.561Z,59.66
2022-10-11T17:32:09.182Z,59.53
2022-10-11T17:34:36.038Z,59.72
2022-10-11T17:37:03.144Z,59.72
2022-10-11T17:39:30.059Z,60.22
2022-10-11T17:41:57.044Z,60.10
2022-10-11T17:44:23.843Z,60.26
2022-10-11T17:46:50.628Z,59.24
2022-10-11T17:49:17.860Z,59.59
2022-10-11T17:51:45.941Z,59.34
2022-10-11T17:54:12.990Z,60.27
2022-10-11T17:56:41.539Z,60.56
2022-10-11T17:59:15.013Z,60.41
2022-10-11T18:01:41.897Z,60.64
2022-10-11T18:04:16.162Z,60.41
2022-10-11T18:06:45.159Z,60.27
2022-10-11T18:09:13.596Z,60.46
2022-10-11T18:11:40.519Z,60.33
2022-10-11T18:14:07.662Z,59.92
2022-10-11T18:16:35.712Z,60.19
2022-10-11T18:19:06.022Z,60.03
2022-10-11T18:21:34.858Z,59.61
2022-10-11T18:24:05.029Z,59.98
2022-10-11T18:26:31.836Z,59.46
2022-10-11T18:28:58.989Z,59.13
2022-10-11T18:31:29.403Z,59.05
2022-10-11T18:33:56.873Z,59.29
2022-10-11T18:36:26.784Z,59.34
2022-10-11T18:38:56.008Z,59.37
2022-10-11T18:41:24.716Z,59.39
2022-10-11T18:43:54.829Z,59.66
2022-10-11T18:46:23.869Z,59.65
2022-10-11T18:48:53.346Z,59.47
2022-10-11T18:51:23.724Z,59.94
2022-10-11T18:53:51.649Z,60.06
2022-10-11T18:56:21.442Z,59.91
2022-10-11T18:58:50.070Z,59.68
2022-10-11T19:01:21.817Z,59.49
2022-10-11T19:03:53.779Z,59.79
2022-10-11T19:06:23.386Z,60.00
2022-10-11T19:09:10.375Z,60.08
2022-10-11T19:11:38.227Z,60.45
2022-10-11T19:14:11.392Z,60.56
2022-10-11T19:16:41.772Z,60.64
2022-10-11T19:19:10.021Z,60.77
2022-10-11T19:21:37.065Z,61.08
2022-10-11T19:24:04.230Z,61.33
2022-10-11T19:26:33.725Z,61.12
2022-10-11T19:29:12.178Z,60.95
2022-10-11T19:31:48.061Z,61.24
2022-10-11T19:34:15.318Z,61.25
2022-10-11T19:36:43.680Z,61.22
2022-10-11T19:39:13.999Z,60.99
2022-10-11T19:41:41.879Z,60.84
2022-10-11T19:44:08.779Z,60.23
2022-10-11T19:46:51.011Z,60.52
2022-10-11T19:49:22.503Z,60.41
2022-10-11T19:51:50.845Z,60.36
2022-10-11T19:54:18.038Z,59.60
2022-10-11T19:56:44.898Z,59.70
2022-10-11T19:59:12.859Z,59.31
2022-10-11T20:01:40.243Z,59.10
2022-10-11T20:04:12.898Z,59.15
2022-10-11T20:06:49.501Z,58.90
2022-10-11T20:09:29.172Z,58.60
2022-10-11T20:11:56.474Z,58.68
2022-10-11T20:14:23.279Z,58.24
2022-10-11T20:16:50.931Z,57.54
2022-10-11T20:19:17.932Z,58.24
2022-10-11T20:21:45.047Z,57.88
2022-10-11T20:24:12.002Z,58.19
2022-10-11T20:26:39.257Z,57.72
2022-10-11T20:29:06.552Z,57.84
2022-10-11T20:31:34.637Z,57.85
2022-10-11T20:34:04.827Z,57.98
2022-10-11T20:36:32.118Z,57.89
2022-10-11T20:38:59.793Z,58.47
2022-10-11T20:41:28.812Z,58.11
2022-10-11T20:43:56.649Z,57.96
2022-10-11T20:46:25.167Z,58.40
2022-10-11T20:49:01.321Z,58.29
2022-10-11T20:51:30.343Z,58.68
2022-10-11T20:53:58.019Z,58.41
2022-10-11T20:56:25.000Z,59.07
2022-10-11T20:58:52.999Z,59.28
2022-10-11T21:01:23.198Z,59.51
2022-10-11T21:03:50.355Z,59.47
2022-10-11T21:06:17.293Z,59.68
2022-10-11T21:08:44.288Z,60.25
2022-10-11T21:11:11.700Z,59.65
2022-10-11T21:13:38.404Z,59.45
2022-10-11T21:16:07.910Z,59.78
2022-10-11T21:18:34.509Z,59.46
2022-10-11T21:21:11.906Z,59.09
2022-10-11T21:23:39.456Z,58.17
2022-10-11T21:26:14.107Z,58.66
2022-10-11T21:28:41.234Z,58.28
2022-10-11T21:31:10.202Z,59.26
2022-10-11T21:33:37.824Z,59.42
2022-10-11T21:36:06.166Z,59.23
2022-10-11T21:38:33.695Z,59.71
2022-10-11T21:41:07.044Z,59.11
2022-10-11T21:43:35.906Z,59.87
2022-10-11T21:46:10.702Z,59.94
2022-10-11T21:48:37.668Z,60.03
2022-10-11T21:51:04.612Z,60.42
2022-10-11T21:53:31.611Z,60.39
2022-10-11T21:55:59.112Z,59.82
2022-10-11T21:58:26.153Z,59.77
2022-10-11T22:00:53.179Z,59.86
2022-10-11T22:03:20.142Z,59.74
2022-10-11T22:05:47.087Z,60.50
2022-10-11T22:08:14.810Z,60.41
2022-10-11T22:11:00.711Z,59.80
2022-10-11T22:13:29.374Z,60.33
2022-10-11T22:15:56.297Z,61.08
2022-10-11T22:18:25.971Z,59.96
2022-10-11T22:20:52.783Z,60.49
2022-10-11T22:23:19.444Z,61.13
2022-10-11T22:25:46.391Z,61.13
2022-10-11T22:28:13.392Z,60.96
2022-10-11T22:30:40.171Z,60.78
2022-10-11T22:33:07.473Z,60.84
2022-10-11T22:35:37.711Z,61.07
2022-10-11T22:38:06.563Z,61.15
2022-10-11T22:40:33.289Z,61.76
2022-10-11T22:42:59.881Z,61.33
2022-10-11T22:45:26.896Z,61.58
2022-10-11T22:47:53.465Z,61.62
2022-10-11T22:50:20.059Z,62.33
2022-10-11T22:52:47.182Z,61.74
2022-10-11T22:55:18.997Z,61.07
2022-10-11T22:57:47.641Z,62.70
2022-10-11T23:00:14.828Z,62.61
2022-10-11T23:02:41.483Z,61.90
2022-10-11T23:05:08.211Z,62.38
2022-10-11T23:07:35.245Z,61.69
2022-10-11T23:10:02.048Z,61.77
2022-10-11T23:12:30.377Z,61.72
2022-10-11T23:14:56.930Z,61.50
2022-10-11T23:17:23.596Z,61.41
2022-10-11T23:19:50.176Z,61.37
2022-10-11T23:22:16.747Z,61.03
2022-10-11T23:24:43.754Z,61.34
2022-10-11T23:27:10.669Z,61.42
2022-10-11T23:29:40.946Z,61.69
2022-10-11T23:32:08.891Z,61.90
2022-10-11T23:34:35.657Z,61.83
2022-10-11T23:37:03.223Z,61.64
2022-10-11T23:39:31.735Z,60.78
2022-10-11T23:41:58.422Z,61.13
2022-10-11T23:44:25.116Z,61.20
2022-10-11T23:46:52.053Z,61.26
2022-10-11T23:49:18.652Z,60.82
2022-10-11T23:51:45.261Z,60.99
2022-10-11T23:54:11.886Z,62.17
2022-10-11T23:56:38.560Z,62.59
2022-10-11T23:59:05.422Z,63.56
